上海/浦東 の空港の天気 - METARとTAF

上海浦東国際空港 ( ZSPD / PVG ) - 中国 上海市
飛行場実況気象(Metar)
観測時間01/22 01:30 CST (01/21 17:30 UTC)
風向・風速北北西 4m/s
視程10km以上
天気現象弱い雨
全天を覆う雲 雲底高度 1220m
気温6℃
湿度87%
気圧1019hPa
METARZSPD 211730Z 34004MPS 9999 -RA OVC040 06/04 Q1019 NOSIG
過去の天気等 Google飛行場航空写真 Wunderground天気予報

過去48時間のMETAR

飛行場予報(TAF)
発表時間: 1/21 23:25 CST (1/21 15:25 UTC)
予報対象時間: 22日2時 CST ~ 23日2時 CST
風向・風速北 7m/s
視程6,000m
全天の8割程度の雲 雲底高度 340m
TAF ZSPD 211525Z 2118/2218 35007MPS 6000 BKN011 TX12/2206Z TN04/2121Z